Busby, United Kingdom
Current Conditions -  °F | °C
As of 4:50 PM on Friday 31 Oct 2014 (Local Time) from EGPF Reporting Station
Overcast Overcast  
Wind Chill: 17°   Ceiling: 1900
Heat Index: 17°   Visibility: 6mi
Dew Point: 14°   Wind: 15mph
Humidity: 82%   Direction: 190°S
Pressure: 29.65"   Gusts: NA
Location:  55.78°N, 4.27°W
Report Text: EGPF 311650Z AUTO 19013KT 9999 OVC019 17/14 Q1004
Loading
Personal Weather Stations






























Interactive Weather Map
Tropical Storm Tracking
New forecast layout! Learn more

10-Day Weather Forecast

Advertisements
Track Severe Weather on mobile